sensor_id;sensor_type;location;lat;lon;timestamp;P1;durP1;ratioP1;P2;durP2;ratioP2
17173;SDS011;8702;48.130;-1.696;2024-03-08T00:00:41;9.50;;;8.57;;
17173;SDS011;8702;48.130;-1.696;2024-03-08T00:03:09;11.03;;;8.60;;
17173;SDS011;8702;48.130;-1.696;2024-03-08T00:05:36;10.27;;;9.17;;
17173;SDS011;8702;48.130;-1.696;2024-03-08T00:08:04;10.40;;;8.40;;
17173;SDS011;8702;48.130;-1.696;2024-03-08T00:10:35;10.40;;;9.40;;
17173;SDS011;8702;48.130;-1.696;2024-03-08T00:13:04;10.47;;;8.87;;
17173;SDS011;8702;48.130;-1.696;2024-03-08T00:15:31;10.90;;;9.30;;
17173;SDS011;8702;48.130;-1.696;2024-03-08T00:18:00;10.73;;;9.63;;
17173;SDS011;8702;48.130;-1.696;2024-03-08T00:20:27;9.67;;;8.60;;
17173;SDS011;8702;48.130;-1.696;2024-03-08T00:22:54;10.60;;;8.93;;
17173;SDS011;8702;48.130;-1.696;2024-03-08T00:25:23;9.47;;;8.50;;
17173;SDS011;8702;48.130;-1.696;2024-03-08T00:27:50;9.23;;;8.23;;
17173;SDS011;8702;48.130;-1.696;2024-03-08T00:30:20;11.50;;;9.50;;
17173;SDS011;8702;48.130;-1.696;2024-03-08T00:32:48;13.27;;;9.17;;
17173;SDS011;8702;48.130;-1.696;2024-03-08T00:35:16;10.10;;;9.07;;
17173;SDS011;8702;48.130;-1.696;2024-03-08T00:37:44;11.23;;;8.67;;
17173;SDS011;8702;48.130;-1.696;2024-03-08T00:40:12;10.37;;;9.00;;
17173;SDS011;8702;48.130;-1.696;2024-03-08T00:42:40;10.77;;;9.00;;
17173;SDS011;8702;48.130;-1.696;2024-03-08T00:45:09;10.37;;;8.67;;
17173;SDS011;8702;48.130;-1.696;2024-03-08T00:47:36;10.17;;;9.07;;
17173;SDS011;8702;48.130;-1.696;2024-03-08T00:50:04;10.40;;;9.37;;
17173;SDS011;8702;48.130;-1.696;2024-03-08T00:52:32;11.30;;;9.23;;
17173;SDS011;8702;48.130;-1.696;2024-03-08T00:55:00;10.83;;;9.57;;
17173;SDS011;8702;48.130;-1.696;2024-03-08T00:57:27;11.80;;;9.60;;
17173;SDS011;8702;48.130;-1.696;2024-03-08T00:59:55;10.97;;;9.53;;
17173;SDS011;8702;48.130;-1.696;2024-03-08T01:02:22;10.23;;;9.23;;
17173;SDS011;8702;48.130;-1.696;2024-03-08T01:04:49;10.50;;;9.40;;
17173;SDS011;8702;48.130;-1.696;2024-03-08T01:07:16;10.57;;;9.37;;
17173;SDS011;8702;48.130;-1.696;2024-03-08T01:09:45;10.77;;;9.63;;
17173;SDS011;8702;48.130;-1.696;2024-03-08T01:12:12;10.43;;;9.40;;
17173;SDS011;8702;48.130;-1.696;2024-03-08T01:14:39;10.57;;;9.57;;
17173;SDS011;8702;48.130;-1.696;2024-03-08T01:17:06;11.63;;;9.97;;
17173;SDS011;8702;48.130;-1.696;2024-03-08T01:19:34;11.17;;;9.97;;
17173;SDS011;8702;48.130;-1.696;2024-03-08T01:22:01;11.80;;;9.67;;
17173;SDS011;8702;48.130;-1.696;2024-03-08T01:24:29;12.07;;;10.70;;
17173;SDS011;8702;48.130;-1.696;2024-03-08T01:26:57;12.27;;;10.50;;
17173;SDS011;8702;48.130;-1.696;2024-03-08T01:29:25;11.47;;;10.17;;
17173;SDS011;8702;48.130;-1.696;2024-03-08T01:31:52;11.67;;;10.10;;
17173;SDS011;8702;48.130;-1.696;2024-03-08T01:34:19;10.83;;;9.73;;
17173;SDS011;8702;48.130;-1.696;2024-03-08T01:36:46;11.47;;;10.27;;
17173;SDS011;8702;48.130;-1.696;2024-03-08T01:39:13;11.13;;;9.87;;
17173;SDS011;8702;48.130;-1.696;2024-03-08T01:41:41;11.17;;;10.00;;
17173;SDS011;8702;48.130;-1.696;2024-03-08T01:44:09;11.30;;;10.13;;
17173;SDS011;8702;48.130;-1.696;2024-03-08T01:46:36;11.57;;;10.23;;
17173;SDS011;8702;48.130;-1.696;2024-03-08T01:49:03;11.77;;;9.77;;
17173;SDS011;8702;48.130;-1.696;2024-03-08T01:51:30;12.23;;;10.50;;
17173;SDS011;8702;48.130;-1.696;2024-03-08T01:53:58;12.17;;;10.83;;
17173;SDS011;8702;48.130;-1.696;2024-03-08T01:56:27;11.77;;;10.57;;
17173;SDS011;8702;48.130;-1.696;2024-03-08T01:58:56;10.83;;;9.73;;
17173;SDS011;8702;48.130;-1.696;2024-03-08T02:01:25;12.97;;;11.13;;
17173;SDS011;8702;48.130;-1.696;2024-03-08T02:03:53;13.17;;;10.37;;
17173;SDS011;8702;48.130;-1.696;2024-03-08T02:06:22;11.60;;;10.07;;
17173;SDS011;8702;48.130;-1.696;2024-03-08T02:08:49;12.13;;;10.17;;
17173;SDS011;8702;48.130;-1.696;2024-03-08T02:11:16;12.10;;;10.17;;
17173;SDS011;8702;48.130;-1.696;2024-03-08T02:13:43;11.43;;;10.30;;
17173;SDS011;8702;48.130;-1.696;2024-03-08T02:16:11;11.97;;;10.13;;
17173;SDS011;8702;48.130;-1.696;2024-03-08T02:18:39;12.03;;;10.17;;
17173;SDS011;8702;48.130;-1.696;2024-03-08T02:21:08;10.43;;;9.17;;
17173;SDS011;8702;48.130;-1.696;2024-03-08T02:23:35;9.87;;;8.87;;
17173;SDS011;8702;48.130;-1.696;2024-03-08T02:26:03;12.20;;;10.23;;
17173;SDS011;8702;48.130;-1.696;2024-03-08T02:28:30;10.70;;;9.60;;
17173;SDS011;8702;48.130;-1.696;2024-03-08T02:30:57;11.13;;;9.47;;
17173;SDS011;8702;48.130;-1.696;2024-03-08T02:33:26;11.27;;;9.90;;
17173;SDS011;8702;48.130;-1.696;2024-03-08T02:35:53;10.83;;;9.50;;
17173;SDS011;8702;48.130;-1.696;2024-03-08T02:38:22;12.43;;;10.03;;
17173;SDS011;8702;48.130;-1.696;2024-03-08T02:40:50;11.17;;;9.97;;
17173;SDS011;8702;48.130;-1.696;2024-03-08T02:43:18;10.87;;;9.77;;
17173;SDS011;8702;48.130;-1.696;2024-03-08T02:45:47;10.87;;;9.73;;
17173;SDS011;8702;48.130;-1.696;2024-03-08T02:48:15;10.03;;;8.93;;
17173;SDS011;8702;48.130;-1.696;2024-03-08T02:50:42;10.63;;;9.53;;
17173;SDS011;8702;48.130;-1.696;2024-03-08T02:53:09;10.50;;;9.20;;
17173;SDS011;8702;48.130;-1.696;2024-03-08T02:55:38;11.57;;;9.03;;
17173;SDS011;8702;48.130;-1.696;2024-03-08T02:58:06;10.23;;;8.60;;
17173;SDS011;8702;48.130;-1.696;2024-03-08T03:00:35;11.37;;;10.17;;
17173;SDS011;8702;48.130;-1.696;2024-03-08T03:03:04;10.27;;;8.80;;
17173;SDS011;8702;48.130;-1.696;2024-03-08T03:05:31;11.10;;;8.77;;
17173;SDS011;8702;48.130;-1.696;2024-03-08T03:07:58;9.80;;;8.80;;
17173;SDS011;8702;48.130;-1.696;2024-03-08T03:10:26;10.00;;;9.00;;
17173;SDS011;8702;48.130;-1.696;2024-03-08T03:12:54;10.30;;;9.30;;
17173;SDS011;8702;48.130;-1.696;2024-03-08T03:15:21;9.70;;;8.70;;
17173;SDS011;8702;48.130;-1.696;2024-03-08T03:17:48;10.47;;;9.40;;
17173;SDS011;8702;48.130;-1.696;2024-03-08T03:20:16;11.37;;;8.80;;
17173;SDS011;8702;48.130;-1.696;2024-03-08T03:22:48;11.13;;;8.93;;
17173;SDS011;8702;48.130;-1.696;2024-03-08T03:25:17;9.70;;;8.50;;
17173;SDS011;8702;48.130;-1.696;2024-03-08T03:27:50;10.33;;;9.23;;
17173;SDS011;8702;48.130;-1.696;2024-03-08T03:30:18;9.80;;;8.83;;
17173;SDS011;8702;48.130;-1.696;2024-03-08T03:32:46;9.63;;;8.67;;
17173;SDS011;8702;48.130;-1.696;2024-03-08T03:35:14;9.73;;;8.73;;
17173;SDS011;8702;48.130;-1.696;2024-03-08T03:37:42;9.87;;;8.73;;
17173;SDS011;8702;48.130;-1.696;2024-03-08T03:40:11;10.17;;;8.87;;
17173;SDS011;8702;48.130;-1.696;2024-03-08T03:42:39;10.53;;;9.10;;
17173;SDS011;8702;48.130;-1.696;2024-03-08T03:45:06;10.23;;;9.13;;
17173;SDS011;8702;48.130;-1.696;2024-03-08T03:47:35;9.80;;;8.10;;
17173;SDS011;8702;48.130;-1.696;2024-03-08T03:50:04;10.90;;;8.80;;
17173;SDS011;8702;48.130;-1.696;2024-03-08T03:52:32;12.60;;;9.70;;
17173;SDS011;8702;48.130;-1.696;2024-03-08T03:54:59;10.10;;;8.60;;
17173;SDS011;8702;48.130;-1.696;2024-03-08T03:57:26;10.37;;;8.93;;
17173;SDS011;8702;48.130;-1.696;2024-03-08T03:59:55;9.70;;;8.70;;
17173;SDS011;8702;48.130;-1.696;2024-03-08T04:02:23;9.47;;;8.17;;
17173;SDS011;8702;48.130;-1.696;2024-03-08T04:04:52;11.27;;;9.10;;
17173;SDS011;8702;48.130;-1.696;2024-03-08T04:07:20;10.53;;;9.53;;
17173;SDS011;8702;48.130;-1.696;2024-03-08T04:09:47;11.17;;;9.57;;
17173;SDS011;8702;48.130;-1.696;2024-03-08T04:12:15;9.07;;;8.00;;
17173;SDS011;8702;48.130;-1.696;2024-03-08T04:14:42;10.60;;;9.13;;
17173;SDS011;8702;48.130;-1.696;2024-03-08T04:17:09;10.30;;;9.27;;
17173;SDS011;8702;48.130;-1.696;2024-03-08T04:19:37;9.80;;;8.80;;
17173;SDS011;8702;48.130;-1.696;2024-03-08T04:22:06;10.27;;;9.10;;
17173;SDS011;8702;48.130;-1.696;2024-03-08T04:24:33;10.90;;;9.73;;
17173;SDS011;8702;48.130;-1.696;2024-03-08T04:27:00;10.30;;;8.33;;
17173;SDS011;8702;48.130;-1.696;2024-03-08T04:29:28;10.57;;;9.47;;
17173;SDS011;8702;48.130;-1.696;2024-03-08T04:31:55;10.30;;;8.70;;
17173;SDS011;8702;48.130;-1.696;2024-03-08T04:34:23;10.30;;;9.30;;
17173;SDS011;8702;48.130;-1.696;2024-03-08T04:36:50;10.53;;;8.27;;
17173;SDS011;8702;48.130;-1.696;2024-03-08T04:39:19;9.20;;;8.30;;
17173;SDS011;8702;48.130;-1.696;2024-03-08T04:41:46;9.77;;;8.77;;
17173;SDS011;8702;48.130;-1.696;2024-03-08T04:44:13;9.50;;;8.50;;
17173;SDS011;8702;48.130;-1.696;2024-03-08T04:46:41;10.50;;;9.33;;
17173;SDS011;8702;48.130;-1.696;2024-03-08T04:49:08;12.40;;;10.50;;
17173;SDS011;8702;48.130;-1.696;2024-03-08T04:51:36;11.60;;;9.97;;
17173;SDS011;8702;48.130;-1.696;2024-03-08T04:54:03;11.77;;;9.53;;
17173;SDS011;8702;48.130;-1.696;2024-03-08T04:56:32;11.00;;;9.70;;
17173;SDS011;8702;48.130;-1.696;2024-03-08T04:58:59;10.60;;;9.50;;
17173;SDS011;8702;48.130;-1.696;2024-03-08T05:01:27;11.43;;;9.53;;
17173;SDS011;8702;48.130;-1.696;2024-03-08T05:03:54;11.50;;;9.47;;
17173;SDS011;8702;48.130;-1.696;2024-03-08T05:06:21;12.80;;;10.20;;
17173;SDS011;8702;48.130;-1.696;2024-03-08T05:08:48;12.03;;;10.80;;
17173;SDS011;8702;48.130;-1.696;2024-03-08T05:11:15;13.00;;;9.63;;
17173;SDS011;8702;48.130;-1.696;2024-03-08T05:13:44;13.77;;;10.20;;
17173;SDS011;8702;48.130;-1.696;2024-03-08T05:16:11;12.40;;;10.93;;
17173;SDS011;8702;48.130;-1.696;2024-03-08T05:18:40;12.03;;;10.73;;
17173;SDS011;8702;48.130;-1.696;2024-03-08T05:21:08;13.73;;;11.03;;
17173;SDS011;8702;48.130;-1.696;2024-03-08T05:23:35;12.47;;;11.17;;
17173;SDS011;8702;48.130;-1.696;2024-03-08T05:26:03;13.10;;;10.40;;
17173;SDS011;8702;48.130;-1.696;2024-03-08T05:28:30;11.53;;;10.40;;
17173;SDS011;8702;48.130;-1.696;2024-03-08T05:30:59;11.80;;;10.53;;
17173;SDS011;8702;48.130;-1.696;2024-03-08T05:33:26;12.53;;;11.17;;
17173;SDS011;8702;48.130;-1.696;2024-03-08T05:35:53;12.63;;;11.30;;
17173;SDS011;8702;48.130;-1.696;2024-03-08T05:38:21;12.63;;;11.33;;
17173;SDS011;8702;48.130;-1.696;2024-03-08T05:40:48;15.70;;;11.80;;
17173;SDS011;8702;48.130;-1.696;2024-03-08T05:43:16;13.17;;;11.63;;
17173;SDS011;8702;48.130;-1.696;2024-03-08T05:45:44;16.93;;;12.00;;
17173;SDS011;8702;48.130;-1.696;2024-03-08T05:48:13;14.70;;;12.53;;
17173;SDS011;8702;48.130;-1.696;2024-03-08T05:50:40;12.90;;;11.57;;
17173;SDS011;8702;48.130;-1.696;2024-03-08T05:53:08;14.13;;;12.53;;
17173;SDS011;8702;48.130;-1.696;2024-03-08T05:55:35;13.80;;;11.57;;
17173;SDS011;8702;48.130;-1.696;2024-03-08T05:58:03;14.77;;;12.03;;
17173;SDS011;8702;48.130;-1.696;2024-03-08T06:00:32;14.93;;;12.23;;
17173;SDS011;8702;48.130;-1.696;2024-03-08T06:03:01;14.23;;;12.57;;
17173;SDS011;8702;48.130;-1.696;2024-03-08T06:05:30;14.03;;;11.97;;
17173;SDS011;8702;48.130;-1.696;2024-03-08T06:07:57;14.57;;;13.00;;
17173;SDS011;8702;48.130;-1.696;2024-03-08T06:10:24;15.30;;;12.63;;
17173;SDS011;8702;48.130;-1.696;2024-03-08T06:12:51;14.93;;;12.07;;
17173;SDS011;8702;48.130;-1.696;2024-03-08T06:15:19;17.93;;;12.87;;
17173;SDS011;8702;48.130;-1.696;2024-03-08T06:17:47;13.23;;;11.73;;
17173;SDS011;8702;48.130;-1.696;2024-03-08T06:20:14;19.50;;;13.77;;
17173;SDS011;8702;48.130;-1.696;2024-03-08T06:22:42;14.50;;;12.77;;
17173;SDS011;8702;48.130;-1.696;2024-03-08T06:25:10;16.20;;;12.93;;
17173;SDS011;8702;48.130;-1.696;2024-03-08T06:27:38;15.13;;;12.40;;
17173;SDS011;8702;48.130;-1.696;2024-03-08T06:30:07;15.17;;;13.00;;
17173;SDS011;8702;48.130;-1.696;2024-03-08T06:32:35;16.93;;;13.53;;
17173;SDS011;8702;48.130;-1.696;2024-03-08T06:35:02;16.07;;;12.63;;
17173;SDS011;8702;48.130;-1.696;2024-03-08T06:37:31;14.67;;;12.87;;
17173;SDS011;8702;48.130;-1.696;2024-03-08T06:39:59;15.07;;;12.43;;
17173;SDS011;8702;48.130;-1.696;2024-03-08T06:42:28;15.20;;;12.93;;
17173;SDS011;8702;48.130;-1.696;2024-03-08T06:44:58;14.97;;;13.03;;
17173;SDS011;8702;48.130;-1.696;2024-03-08T06:47:29;16.10;;;13.63;;
17173;SDS011;8702;48.130;-1.696;2024-03-08T06:49:56;13.80;;;12.40;;
17173;SDS011;8702;48.130;-1.696;2024-03-08T06:52:23;15.23;;;13.03;;
17173;SDS011;8702;48.130;-1.696;2024-03-08T06:54:51;14.50;;;12.93;;
17173;SDS011;8702;48.130;-1.696;2024-03-08T06:57:19;15.30;;;13.23;;
17173;SDS011;8702;48.130;-1.696;2024-03-08T06:59:47;14.93;;;12.60;;
17173;SDS011;8702;48.130;-1.696;2024-03-08T07:02:14;15.40;;;12.90;;
17173;SDS011;8702;48.130;-1.696;2024-03-08T07:04:41;14.50;;;12.33;;
17173;SDS011;8702;48.130;-1.696;2024-03-08T07:07:08;15.73;;;13.13;;
17173;SDS011;8702;48.130;-1.696;2024-03-08T07:09:35;14.50;;;13.00;;
17173;SDS011;8702;48.130;-1.696;2024-03-08T07:12:03;16.40;;;14.10;;
17173;SDS011;8702;48.130;-1.696;2024-03-08T07:14:31;14.63;;;12.63;;
17173;SDS011;8702;48.130;-1.696;2024-03-08T07:16:59;17.17;;;13.77;;
17173;SDS011;8702;48.130;-1.696;2024-03-08T07:19:26;16.60;;;13.43;;
17173;SDS011;8702;48.130;-1.696;2024-03-08T07:21:53;15.67;;;13.57;;
17173;SDS011;8702;48.130;-1.696;2024-03-08T07:24:21;16.50;;;13.77;;
17173;SDS011;8702;48.130;-1.696;2024-03-08T07:27:03;15.53;;;13.60;;
17173;SDS011;8702;48.130;-1.696;2024-03-08T07:29:31;16.13;;;14.10;;
17173;SDS011;8702;48.130;-1.696;2024-03-08T07:31:58;16.23;;;13.50;;
17173;SDS011;8702;48.130;-1.696;2024-03-08T07:34:37;14.03;;;12.53;;
17173;SDS011;8702;48.130;-1.696;2024-03-08T07:37:05;16.00;;;13.67;;
17173;SDS011;8702;48.130;-1.696;2024-03-08T07:39:36;16.63;;;13.13;;
17173;SDS011;8702;48.130;-1.696;2024-03-08T07:42:03;15.80;;;13.07;;
17173;SDS011;8702;48.130;-1.696;2024-03-08T07:44:32;14.10;;;12.33;;
17173;SDS011;8702;48.130;-1.696;2024-03-08T07:46:59;14.47;;;12.90;;
17173;SDS011;8702;48.130;-1.696;2024-03-08T07:49:26;16.87;;;13.73;;
17173;SDS011;8702;48.130;-1.696;2024-03-08T07:51:53;14.80;;;11.97;;
17173;SDS011;8702;48.130;-1.696;2024-03-08T07:54:20;14.33;;;12.80;;
17173;SDS011;8702;48.130;-1.696;2024-03-08T07:56:47;14.63;;;13.13;;
17173;SDS011;8702;48.130;-1.696;2024-03-08T07:59:16;14.83;;;12.97;;
17173;SDS011;8702;48.130;-1.696;2024-03-08T08:01:44;13.97;;;12.33;;
17173;SDS011;8702;48.130;-1.696;2024-03-08T08:04:12;16.23;;;12.53;;
17173;SDS011;8702;48.130;-1.696;2024-03-08T08:06:39;15.87;;;12.70;;
17173;SDS011;8702;48.130;-1.696;2024-03-08T08:09:07;12.20;;;10.90;;
17173;SDS011;8702;48.130;-1.696;2024-03-08T08:11:39;13.87;;;12.47;;
17173;SDS011;8702;48.130;-1.696;2024-03-08T08:14:08;16.80;;;12.87;;
17173;SDS011;8702;48.130;-1.696;2024-03-08T08:16:35;13.30;;;11.83;;
17173;SDS011;8702;48.130;-1.696;2024-03-08T08:19:04;14.53;;;12.37;;
17173;SDS011;8702;48.130;-1.696;2024-03-08T08:21:33;13.70;;;11.97;;
17173;SDS011;8702;48.130;-1.696;2024-03-08T08:24:00;13.60;;;12.17;;
17173;SDS011;8702;48.130;-1.696;2024-03-08T08:26:28;13.47;;;11.83;;
17173;SDS011;8702;48.130;-1.696;2024-03-08T08:28:55;14.03;;;12.43;;
17173;SDS011;8702;48.130;-1.696;2024-03-08T08:31:22;14.27;;;12.10;;
17173;SDS011;8702;48.130;-1.696;2024-03-08T08:33:50;18.03;;;12.57;;
17173;SDS011;8702;48.130;-1.696;2024-03-08T08:36:22;14.40;;;11.80;;
17173;SDS011;8702;48.130;-1.696;2024-03-08T08:38:49;14.57;;;12.33;;
17173;SDS011;8702;48.130;-1.696;2024-03-08T08:41:19;12.90;;;11.50;;
17173;SDS011;8702;48.130;-1.696;2024-03-08T08:43:46;13.37;;;11.20;;
17173;SDS011;8702;48.130;-1.696;2024-03-08T08:46:16;12.87;;;11.57;;
17173;SDS011;8702;48.130;-1.696;2024-03-08T08:48:43;13.57;;;11.30;;
17173;SDS011;8702;48.130;-1.696;2024-03-08T08:51:11;15.40;;;11.50;;
17173;SDS011;8702;48.130;-1.696;2024-03-08T08:53:40;12.57;;;11.27;;
17173;SDS011;8702;48.130;-1.696;2024-03-08T08:56:08;12.33;;;11.03;;
17173;SDS011;8702;48.130;-1.696;2024-03-08T08:58:38;12.60;;;11.33;;
17173;SDS011;8702;48.130;-1.696;2024-03-08T09:01:05;14.20;;;11.03;;
17173;SDS011;8702;48.130;-1.696;2024-03-08T09:03:32;14.40;;;11.47;;
17173;SDS011;8702;48.130;-1.696;2024-03-08T09:06:00;12.57;;;11.13;;
17173;SDS011;8702;48.130;-1.696;2024-03-08T09:08:27;12.43;;;10.50;;
17173;SDS011;8702;48.130;-1.696;2024-03-08T09:10:56;13.50;;;11.43;;
17173;SDS011;8702;48.130;-1.696;2024-03-08T09:13:24;13.57;;;10.27;;
17173;SDS011;8702;48.130;-1.696;2024-03-08T09:15:52;13.20;;;11.00;;
17173;SDS011;8702;48.130;-1.696;2024-03-08T09:18:19;12.20;;;10.90;;
17173;SDS011;8702;48.130;-1.696;2024-03-08T09:20:46;12.63;;;10.93;;
17173;SDS011;8702;48.130;-1.696;2024-03-08T09:23:13;12.53;;;10.80;;
17173;SDS011;8702;48.130;-1.696;2024-03-08T09:25:42;14.00;;;10.63;;
17173;SDS011;8702;48.130;-1.696;2024-03-08T09:28:10;13.23;;;10.33;;
17173;SDS011;8702;48.130;-1.696;2024-03-08T09:30:37;10.90;;;9.77;;
17173;SDS011;8702;48.130;-1.696;2024-03-08T09:33:05;14.17;;;10.43;;
17173;SDS011;8702;48.130;-1.696;2024-03-08T09:35:32;15.33;;;9.77;;
17173;SDS011;8702;48.130;-1.696;2024-03-08T09:37:59;12.77;;;9.70;;
17173;SDS011;8702;48.130;-1.696;2024-03-08T09:40:26;11.97;;;10.40;;
17173;SDS011;8702;48.130;-1.696;2024-03-08T09:42:54;13.67;;;10.57;;
17173;SDS011;8702;48.130;-1.696;2024-03-08T09:45:23;12.00;;;9.60;;
17173;SDS011;8702;48.130;-1.696;2024-03-08T09:47:51;14.07;;;9.57;;
17173;SDS011;8702;48.130;-1.696;2024-03-08T09:50:19;11.73;;;8.80;;
17173;SDS011;8702;48.130;-1.696;2024-03-08T09:52:47;11.87;;;9.77;;
17173;SDS011;8702;48.130;-1.696;2024-03-08T09:55:15;11.63;;;9.13;;
17173;SDS011;8702;48.130;-1.696;2024-03-08T09:57:47;11.63;;;8.73;;
17173;SDS011;8702;48.130;-1.696;2024-03-08T10:00:41;10.87;;;9.70;;
17173;SDS011;8702;48.130;-1.696;2024-03-08T10:03:08;10.63;;;9.40;;
17173;SDS011;8702;48.130;-1.696;2024-03-08T10:05:36;14.33;;;10.00;;
17173;SDS011;8702;48.130;-1.696;2024-03-08T10:08:03;14.27;;;8.93;;
17173;SDS011;8702;48.130;-1.696;2024-03-08T10:10:33;10.33;;;9.27;;
17173;SDS011;8702;48.130;-1.696;2024-03-08T10:13:00;14.20;;;8.97;;
17173;SDS011;8702;48.130;-1.696;2024-03-08T10:15:28;14.03;;;9.23;;
17173;SDS011;8702;48.130;-1.696;2024-03-08T10:17:59;11.40;;;8.33;;
17173;SDS011;8702;48.130;-1.696;2024-03-08T10:20:27;10.30;;;8.80;;
17173;SDS011;8702;48.130;-1.696;2024-03-08T10:22:58;12.00;;;8.57;;
17173;SDS011;8702;48.130;-1.696;2024-03-08T10:25:25;14.17;;;8.60;;
17173;SDS011;8702;48.130;-1.696;2024-03-08T10:27:52;9.63;;;8.20;;
17173;SDS011;8702;48.130;-1.696;2024-03-08T10:30:20;11.47;;;8.50;;
17173;SDS011;8702;48.130;-1.696;2024-03-08T10:32:47;12.23;;;9.00;;
17173;SDS011;8702;48.130;-1.696;2024-03-08T10:35:15;12.63;;;8.40;;
17173;SDS011;8702;48.130;-1.696;2024-03-08T10:37:44;14.23;;;8.33;;
17173;SDS011;8702;48.130;-1.696;2024-03-08T10:40:13;10.53;;;7.70;;
17173;SDS011;8702;48.130;-1.696;2024-03-08T10:42:45;11.00;;;8.97;;
17173;SDS011;8702;48.130;-1.696;2024-03-08T10:45:15;10.40;;;8.47;;
17173;SDS011;8702;48.130;-1.696;2024-03-08T10:47:42;8.33;;;6.93;;
17173;SDS011;8702;48.130;-1.696;2024-03-08T10:50:17;12.13;;;8.43;;
17173;SDS011;8702;48.130;-1.696;2024-03-08T10:52:47;12.27;;;8.27;;
17173;SDS011;8702;48.130;-1.696;2024-03-08T10:55:15;12.17;;;7.70;;
17173;SDS011;8702;48.130;-1.696;2024-03-08T10:57:42;9.67;;;7.43;;
17173;SDS011;8702;48.130;-1.696;2024-03-08T11:00:10;10.70;;;7.40;;
17173;SDS011;8702;48.130;-1.696;2024-03-08T11:02:39;11.77;;;7.50;;
17173;SDS011;8702;48.130;-1.696;2024-03-08T11:05:10;9.27;;;7.50;;
17173;SDS011;8702;48.130;-1.696;2024-03-08T11:07:41;10.13;;;7.27;;
17173;SDS011;8702;48.130;-1.696;2024-03-08T11:10:18;9.80;;;7.50;;
17173;SDS011;8702;48.130;-1.696;2024-03-08T11:12:45;9.67;;;7.73;;
17173;SDS011;8702;48.130;-1.696;2024-03-08T11:15:13;8.57;;;7.20;;
17173;SDS011;8702;48.130;-1.696;2024-03-08T11:17:47;13.27;;;7.17;;
17173;SDS011;8702;48.130;-1.696;2024-03-08T11:20:14;9.67;;;6.63;;
17173;SDS011;8702;48.130;-1.696;2024-03-08T11:22:47;7.13;;;6.43;;
17173;SDS011;8702;48.130;-1.696;2024-03-08T11:25:32;8.17;;;6.73;;
17173;SDS011;8702;48.130;-1.696;2024-03-08T11:28:12;9.70;;;7.43;;
17173;SDS011;8702;48.130;-1.696;2024-03-08T11:30:45;10.43;;;6.97;;
17173;SDS011;8702;48.130;-1.696;2024-03-08T11:33:13;13.87;;;7.37;;
17173;SDS011;8702;48.130;-1.696;2024-03-08T11:35:41;9.10;;;6.90;;
17173;SDS011;8702;48.130;-1.696;2024-03-08T11:38:12;9.30;;;6.23;;
17173;SDS011;8702;48.130;-1.696;2024-03-08T11:40:39;7.63;;;6.57;;
17173;SDS011;8702;48.130;-1.696;2024-03-08T11:43:08;11.93;;;6.87;;
17173;SDS011;8702;48.130;-1.696;2024-03-08T11:45:35;9.50;;;6.20;;
17173;SDS011;8702;48.130;-1.696;2024-03-08T11:48:03;7.83;;;6.03;;
17173;SDS011;8702;48.130;-1.696;2024-03-08T11:50:30;11.00;;;6.93;;
17173;SDS011;8702;48.130;-1.696;2024-03-08T11:53:01;13.97;;;7.10;;
17173;SDS011;8702;48.130;-1.696;2024-03-08T11:55:30;9.33;;;6.30;;
17173;SDS011;8702;48.130;-1.696;2024-03-08T11:58:01;8.40;;;5.63;;
17173;SDS011;8702;48.130;-1.696;2024-03-08T12:00:29;10.33;;;5.97;;
17173;SDS011;8702;48.130;-1.696;2024-03-08T12:03:03;7.23;;;5.53;;
17173;SDS011;8702;48.130;-1.696;2024-03-08T12:05:30;9.17;;;5.90;;
17173;SDS011;8702;48.130;-1.696;2024-03-08T12:07:58;10.43;;;6.10;;
17173;SDS011;8702;48.130;-1.696;2024-03-08T12:10:25;7.50;;;6.10;;
17173;SDS011;8702;48.130;-1.696;2024-03-08T12:12:55;12.93;;;6.27;;
17173;SDS011;8702;48.130;-1.696;2024-03-08T12:15:24;8.97;;;6.10;;
17173;SDS011;8702;48.130;-1.696;2024-03-08T12:17:53;8.40;;;5.93;;
17173;SDS011;8702;48.130;-1.696;2024-03-08T12:20:21;9.20;;;6.37;;
17173;SDS011;8702;48.130;-1.696;2024-03-08T12:22:48;8.10;;;5.93;;
17173;SDS011;8702;48.130;-1.696;2024-03-08T12:25:17;11.03;;;6.43;;
17173;SDS011;8702;48.130;-1.696;2024-03-08T12:27:45;7.27;;;5.53;;
17173;SDS011;8702;48.130;-1.696;2024-03-08T12:30:18;9.40;;;6.13;;
17173;SDS011;8702;48.130;-1.696;2024-03-08T12:32:48;7.40;;;5.40;;
17173;SDS011;8702;48.130;-1.696;2024-03-08T12:35:17;11.40;;;5.80;;
17173;SDS011;8702;48.130;-1.696;2024-03-08T12:37:44;7.93;;;5.53;;
17173;SDS011;8702;48.130;-1.696;2024-03-08T12:40:11;10.30;;;6.23;;
17173;SDS011;8702;48.130;-1.696;2024-03-08T12:42:41;8.20;;;6.50;;
17173;SDS011;8702;48.130;-1.696;2024-03-08T12:45:09;9.03;;;5.60;;
17173;SDS011;8702;48.130;-1.696;2024-03-08T12:47:37;8.27;;;5.97;;
17173;SDS011;8702;48.130;-1.696;2024-03-08T12:50:07;8.23;;;6.17;;
17173;SDS011;8702;48.130;-1.696;2024-03-08T12:52:34;8.43;;;6.00;;
17173;SDS011;8702;48.130;-1.696;2024-03-08T12:55:01;6.63;;;5.20;;
17173;SDS011;8702;48.130;-1.696;2024-03-08T12:57:29;10.20;;;5.83;;
17173;SDS011;8702;48.130;-1.696;2024-03-08T12:59:57;9.43;;;5.50;;
17173;SDS011;8702;48.130;-1.696;2024-03-08T13:02:24;7.73;;;5.30;;
17173;SDS011;8702;48.130;-1.696;2024-03-08T13:04:53;7.60;;;5.40;;
17173;SDS011;8702;48.130;-1.696;2024-03-08T13:07:22;7.63;;;5.57;;
17173;SDS011;8702;48.130;-1.696;2024-03-08T13:09:50;8.20;;;5.97;;
17173;SDS011;8702;48.130;-1.696;2024-03-08T13:12:18;6.93;;;5.50;;
17173;SDS011;8702;48.130;-1.696;2024-03-08T13:14:46;8.20;;;5.77;;
17173;SDS011;8702;48.130;-1.696;2024-03-08T13:17:13;7.10;;;4.83;;
17173;SDS011;8702;48.130;-1.696;2024-03-08T13:19:40;8.80;;;5.57;;
17173;SDS011;8702;48.130;-1.696;2024-03-08T13:22:09;7.67;;;5.23;;
17173;SDS011;8702;48.130;-1.696;2024-03-08T13:24:38;8.67;;;5.30;;
17173;SDS011;8702;48.130;-1.696;2024-03-08T13:27:05;10.33;;;6.20;;
17173;SDS011;8702;48.130;-1.696;2024-03-08T13:29:44;7.33;;;5.10;;
17173;SDS011;8702;48.130;-1.696;2024-03-08T13:32:12;7.53;;;5.23;;
17173;SDS011;8702;48.130;-1.696;2024-03-08T13:34:40;7.17;;;5.63;;
17173;SDS011;8702;48.130;-1.696;2024-03-08T13:37:09;7.13;;;4.80;;
17173;SDS011;8702;48.130;-1.696;2024-03-08T13:39:36;8.67;;;4.80;;
17173;SDS011;8702;48.130;-1.696;2024-03-08T13:42:08;9.67;;;5.00;;
17173;SDS011;8702;48.130;-1.696;2024-03-08T13:44:38;6.37;;;4.80;;
17173;SDS011;8702;48.130;-1.696;2024-03-08T13:47:05;9.97;;;5.67;;
17173;SDS011;8702;48.130;-1.696;2024-03-08T13:49:32;7.50;;;5.27;;
17173;SDS011;8702;48.130;-1.696;2024-03-08T13:52:01;9.63;;;5.13;;
17173;SDS011;8702;48.130;-1.696;2024-03-08T13:54:30;9.30;;;5.40;;
17173;SDS011;8702;48.130;-1.696;2024-03-08T13:56:57;6.33;;;4.83;;
17173;SDS011;8702;48.130;-1.696;2024-03-08T13:59:25;8.30;;;5.40;;
17173;SDS011;8702;48.130;-1.696;2024-03-08T14:01:54;8.83;;;4.50;;
17173;SDS011;8702;48.130;-1.696;2024-03-08T14:04:23;6.80;;;4.97;;
17173;SDS011;8702;48.130;-1.696;2024-03-08T14:06:51;9.70;;;4.87;;
17173;SDS011;8702;48.130;-1.696;2024-03-08T14:09:22;9.80;;;5.20;;
17173;SDS011;8702;48.130;-1.696;2024-03-08T14:11:51;8.50;;;5.87;;
17173;SDS011;8702;48.130;-1.696;2024-03-08T14:14:20;6.97;;;4.97;;
17173;SDS011;8702;48.130;-1.696;2024-03-08T14:16:48;6.17;;;4.87;;
17173;SDS011;8702;48.130;-1.696;2024-03-08T14:19:17;8.37;;;4.77;;
17173;SDS011;8702;48.130;-1.696;2024-03-08T14:21:44;8.60;;;5.43;;
17173;SDS011;8702;48.130;-1.696;2024-03-08T14:24:13;8.10;;;4.83;;
17173;SDS011;8702;48.130;-1.696;2024-03-08T14:26:43;6.90;;;4.70;;
17173;SDS011;8702;48.130;-1.696;2024-03-08T14:29:13;10.67;;;5.07;;
17173;SDS011;8702;48.130;-1.696;2024-03-08T14:31:40;9.80;;;4.70;;
17173;SDS011;8702;48.130;-1.696;2024-03-08T14:34:08;7.40;;;5.03;;
17173;SDS011;8702;48.130;-1.696;2024-03-08T14:36:35;9.30;;;5.20;;
17173;SDS011;8702;48.130;-1.696;2024-03-08T14:39:03;10.23;;;4.57;;